Kezdőlap
METAR-TAF:

METAR-TAF

Repülőterek :

Piacenza, Olaszország

földrajzi szélesség: 44-55N, földrajzi hosszúság: 009-44E, magasság: 134 m

Jelenlegi meteorológiai megfigyelések

A jelentés 38 perccel ezelõtt készült, 13:55 UTC
Kelet-északkeleti szél 3 kt
Hőmérséklet 14°C
Páratartalom 67%
Légköri nyomás 1022 hPa
Látótávolság 10 km, vagy több
felhőtlen 1500 m magasságban, és nincs gomolyfelhõ

METAR: LIMS 181355Z 07003KT CAVOK 14/08 Q1022 RMK SKC VIS MIN 9999 WIND THR30 08003KT BLU

Idő: 15:33 (14:33 UTC)


TAF: hiányzik

Meteorológiai megfigyelések és előrejelzések több, mint 4000 repülőtéren (METAR és TAF jelentéseket).

A térképen piros és sárga pontok jelzik az elérhető meteorológiai állomásokat.

Mozgassa az egeret a pont fölött, hogy megjelenjen az állomás neve.

Azután kattintson az időjárási megfigyelések és előrejelzések megtekintéséhez.

A térkép megváltoztatása: kattintson a fekete keresztel jelölt zöld gombra ráközelítéshez, a vonallal jelölt zöld gombra távolításhoz, vagy a zöld nyilakra a szomszédos térképek eléréséhez.


METAR-TAF: